sensor_id;sensor_type;location;lat;lon;timestamp;P1;durP1;ratioP1;P2;durP2;ratioP2
70985;SDS011;58645;43.068;25.610;2022-08-01T00:00:23;3.92;;;2.70;;
70985;SDS011;58645;43.068;25.610;2022-08-01T00:02:49;3.50;;;2.28;;
70985;SDS011;58645;43.068;25.610;2022-08-01T00:05:15;3.25;;;2.40;;
70985;SDS011;58645;43.068;25.610;2022-08-01T00:07:41;3.78;;;2.42;;
70985;SDS011;58645;43.068;25.610;2022-08-01T00:10:08;3.58;;;2.40;;
70985;SDS011;58645;43.068;25.610;2022-08-01T00:12:38;3.50;;;2.70;;
70985;SDS011;58645;43.068;25.610;2022-08-01T00:15:05;3.28;;;2.15;;
70985;SDS011;58645;43.068;25.610;2022-08-01T00:17:32;3.50;;;2.40;;
70985;SDS011;58645;43.068;25.610;2022-08-01T00:19:58;3.38;;;2.50;;
70985;SDS011;58645;43.068;25.610;2022-08-01T00:22:24;4.80;;;2.25;;
70985;SDS011;58645;43.068;25.610;2022-08-01T00:24:49;2.60;;;2.13;;
70985;SDS011;58645;43.068;25.610;2022-08-01T00:27:15;2.95;;;2.13;;
70985;SDS011;58645;43.068;25.610;2022-08-01T00:29:41;3.85;;;2.30;;
70985;SDS011;58645;43.068;25.610;2022-08-01T00:32:07;4.60;;;2.13;;
70985;SDS011;58645;43.068;25.610;2022-08-01T00:34:33;3.80;;;2.42;;
70985;SDS011;58645;43.068;25.610;2022-08-01T00:36:58;3.45;;;2.25;;
70985;SDS011;58645;43.068;25.610;2022-08-01T00:39:24;2.70;;;1.98;;
70985;SDS011;58645;43.068;25.610;2022-08-01T00:44:16;2.55;;;1.73;;
70985;SDS011;58645;43.068;25.610;2022-08-01T00:46:41;3.90;;;1.92;;
70985;SDS011;58645;43.068;25.610;2022-08-01T00:49:07;3.03;;;2.00;;
70985;SDS011;58645;43.068;25.610;2022-08-01T00:51:33;2.97;;;1.75;;
70985;SDS011;58645;43.068;25.610;2022-08-01T00:53:59;3.38;;;2.05;;
70985;SDS011;58645;43.068;25.610;2022-08-01T00:56:26;3.85;;;2.47;;
70985;SDS011;58645;43.068;25.610;2022-08-01T00:58:55;3.95;;;2.10;;
70985;SDS011;58645;43.068;25.610;2022-08-01T01:01:21;2.83;;;1.92;;
70985;SDS011;58645;43.068;25.610;2022-08-01T01:03:48;3.00;;;2.00;;
70985;SDS011;58645;43.068;25.610;2022-08-01T01:11:49;3.55;;;1.95;;
70985;SDS011;58645;43.068;25.610;2022-08-01T01:14:37;9.48;;;4.45;;
70985;SDS011;58645;43.068;25.610;2022-08-01T01:17:11;6.50;;;4.63;;
70985;SDS011;58645;43.068;25.610;2022-08-01T01:19:45;11.88;;;4.15;;
70985;SDS011;58645;43.068;25.610;2022-08-01T01:22:17;4.45;;;3.13;;
70985;SDS011;58645;43.068;25.610;2022-08-01T01:25:21;3.85;;;2.13;;
70985;SDS011;58645;43.068;25.610;2022-08-01T01:28:20;6.72;;;3.50;;
70985;SDS011;58645;43.068;25.610;2022-08-01T01:31:06;6.75;;;1.95;;
70985;SDS011;58645;43.068;25.610;2022-08-01T01:33:36;2.70;;;2.20;;
70985;SDS011;58645;43.068;25.610;2022-08-01T01:36:05;2.72;;;2.30;;
70985;SDS011;58645;43.068;25.610;2022-08-01T01:38:34;3.58;;;1.92;;
70985;SDS011;58645;43.068;25.610;2022-08-01T01:41:07;3.88;;;1.92;;
70985;SDS011;58645;43.068;25.610;2022-08-01T01:43:35;3.10;;;1.90;;
70985;SDS011;58645;43.068;25.610;2022-08-01T01:46:02;2.33;;;1.90;;
70985;SDS011;58645;43.068;25.610;2022-08-01T01:48:29;3.45;;;2.03;;
70985;SDS011;58645;43.068;25.610;2022-08-01T01:50:57;2.33;;;1.95;;
70985;SDS011;58645;43.068;25.610;2022-08-01T01:53:25;2.08;;;1.58;;
70985;SDS011;58645;43.068;25.610;2022-08-01T01:55:53;3.28;;;1.60;;
70985;SDS011;58645;43.068;25.610;2022-08-01T01:58:23;2.70;;;1.75;;
70985;SDS011;58645;43.068;25.610;2022-08-01T02:00:51;2.22;;;1.67;;
70985;SDS011;58645;43.068;25.610;2022-08-01T02:03:18;2.80;;;1.63;;
70985;SDS011;58645;43.068;25.610;2022-08-01T02:05:46;2.35;;;1.90;;
70985;SDS011;58645;43.068;25.610;2022-08-01T02:08:14;2.42;;;1.60;;
70985;SDS011;58645;43.068;25.610;2022-08-01T02:10:41;3.95;;;1.88;;
70985;SDS011;58645;43.068;25.610;2022-08-01T02:13:32;2.45;;;1.77;;
70985;SDS011;58645;43.068;25.610;2022-08-01T02:16:01;3.35;;;1.77;;
70985;SDS011;58645;43.068;25.610;2022-08-01T02:18:28;4.15;;;1.90;;
70985;SDS011;58645;43.068;25.610;2022-08-01T02:20:55;4.93;;;2.10;;
70985;SDS011;58645;43.068;25.610;2022-08-01T02:23:24;2.83;;;1.85;;
70985;SDS011;58645;43.068;25.610;2022-08-01T02:25:55;2.67;;;1.85;;
70985;SDS011;58645;43.068;25.610;2022-08-01T02:28:29;2.20;;;1.67;;
70985;SDS011;58645;43.068;25.610;2022-08-01T02:31:01;3.17;;;1.88;;
70985;SDS011;58645;43.068;25.610;2022-08-01T02:33:33;3.22;;;1.85;;
70985;SDS011;58645;43.068;25.610;2022-08-01T02:36:02;3.42;;;1.73;;
70985;SDS011;58645;43.068;25.610;2022-08-01T02:40:58;2.70;;;1.92;;
70985;SDS011;58645;43.068;25.610;2022-08-01T02:43:28;2.30;;;1.73;;
70985;SDS011;58645;43.068;25.610;2022-08-01T02:45:56;2.83;;;1.80;;
70985;SDS011;58645;43.068;25.610;2022-08-01T02:48:26;3.55;;;1.75;;
70985;SDS011;58645;43.068;25.610;2022-08-01T02:50:54;2.92;;;2.33;;
70985;SDS011;58645;43.068;25.610;2022-08-01T02:53:23;7.47;;;4.30;;
70985;SDS011;58645;43.068;25.610;2022-08-01T02:55:51;8.35;;;4.72;;
70985;SDS011;58645;43.068;25.610;2022-08-01T02:58:19;7.35;;;3.85;;
70985;SDS011;58645;43.068;25.610;2022-08-01T03:00:48;6.55;;;4.07;;
70985;SDS011;58645;43.068;25.610;2022-08-01T03:03:14;8.13;;;3.35;;
70985;SDS011;58645;43.068;25.610;2022-08-01T03:05:41;5.93;;;3.25;;
70985;SDS011;58645;43.068;25.610;2022-08-01T03:08:09;6.47;;;3.20;;
70985;SDS011;58645;43.068;25.610;2022-08-01T03:10:36;5.38;;;3.00;;
70985;SDS011;58645;43.068;25.610;2022-08-01T03:13:05;4.65;;;3.10;;
70985;SDS011;58645;43.068;25.610;2022-08-01T03:15:34;6.10;;;2.95;;
70985;SDS011;58645;43.068;25.610;2022-08-01T03:18:02;5.20;;;3.45;;
70985;SDS011;58645;43.068;25.610;2022-08-01T03:20:31;5.00;;;3.58;;
70985;SDS011;58645;43.068;25.610;2022-08-01T03:23:03;5.05;;;3.53;;
70985;SDS011;58645;43.068;25.610;2022-08-01T03:25:32;12.32;;;4.32;;
70985;SDS011;58645;43.068;25.610;2022-08-01T03:28:02;6.70;;;4.43;;
70985;SDS011;58645;43.068;25.610;2022-08-01T03:30:29;5.53;;;4.30;;
70985;SDS011;58645;43.068;25.610;2022-08-01T03:32:58;7.13;;;4.40;;
70985;SDS011;58645;43.068;25.610;2022-08-01T03:35:29;5.45;;;4.05;;
70985;SDS011;58645;43.068;25.610;2022-08-01T03:37:58;9.50;;;4.63;;
70985;SDS011;58645;43.068;25.610;2022-08-01T03:43:05;6.32;;;4.30;;
70985;SDS011;58645;43.068;25.610;2022-08-01T03:45:37;9.35;;;4.35;;
70985;SDS011;58645;43.068;25.610;2022-08-01T03:48:10;11.48;;;4.45;;
70985;SDS011;58645;43.068;25.610;2022-08-01T03:50:41;10.40;;;4.82;;
70985;SDS011;58645;43.068;25.610;2022-08-01T03:53:10;8.65;;;4.57;;
70985;SDS011;58645;43.068;25.610;2022-08-01T03:55:38;8.68;;;4.40;;
70985;SDS011;58645;43.068;25.610;2022-08-01T03:58:06;6.65;;;3.95;;
70985;SDS011;58645;43.068;25.610;2022-08-01T04:00:34;5.65;;;3.20;;
70985;SDS011;58645;43.068;25.610;2022-08-01T04:03:03;5.97;;;3.60;;
70985;SDS011;58645;43.068;25.610;2022-08-01T04:05:29;5.32;;;3.67;;
70985;SDS011;58645;43.068;25.610;2022-08-01T04:07:56;5.45;;;2.92;;
70985;SDS011;58645;43.068;25.610;2022-08-01T04:10:23;4.72;;;3.00;;
70985;SDS011;58645;43.068;25.610;2022-08-01T04:12:49;9.35;;;3.28;;
70985;SDS011;58645;43.068;25.610;2022-08-01T04:15:15;7.10;;;3.72;;
70985;SDS011;58645;43.068;25.610;2022-08-01T04:17:41;5.65;;;2.95;;
70985;SDS011;58645;43.068;25.610;2022-08-01T04:20:07;5.93;;;3.70;;
70985;SDS011;58645;43.068;25.610;2022-08-01T04:22:34;6.43;;;2.75;;
70985;SDS011;58645;43.068;25.610;2022-08-01T04:25:01;7.50;;;3.28;;
70985;SDS011;58645;43.068;25.610;2022-08-01T04:30:01;5.57;;;3.50;;
70985;SDS011;58645;43.068;25.610;2022-08-01T04:32:28;5.65;;;3.45;;
70985;SDS011;58645;43.068;25.610;2022-08-01T04:34:59;8.00;;;3.85;;
70985;SDS011;58645;43.068;25.610;2022-08-01T04:37:27;9.77;;;3.33;;
70985;SDS011;58645;43.068;25.610;2022-08-01T04:39:54;7.15;;;3.03;;
70985;SDS011;58645;43.068;25.610;2022-08-01T04:42:21;6.05;;;3.05;;
70985;SDS011;58645;43.068;25.610;2022-08-01T04:47:13;6.38;;;2.85;;
70985;SDS011;58645;43.068;25.610;2022-08-01T04:49:39;4.78;;;2.85;;
70985;SDS011;58645;43.068;25.610;2022-08-01T04:52:05;5.93;;;2.50;;
70985;SDS011;58645;43.068;25.610;2022-08-01T04:57:02;4.43;;;2.60;;
70985;SDS011;58645;43.068;25.610;2022-08-01T04:59:32;4.78;;;2.42;;
70985;SDS011;58645;43.068;25.610;2022-08-01T05:02:05;5.10;;;2.00;;
70985;SDS011;58645;43.068;25.610;2022-08-01T05:04:32;3.65;;;2.20;;
70985;SDS011;58645;43.068;25.610;2022-08-01T05:06:59;3.60;;;1.88;;
70985;SDS011;58645;43.068;25.610;2022-08-01T05:11:50;1.98;;;1.42;;
70985;SDS011;58645;43.068;25.610;2022-08-01T05:14:16;2.15;;;1.52;;
70985;SDS011;58645;43.068;25.610;2022-08-01T05:16:42;2.20;;;1.58;;
70985;SDS011;58645;43.068;25.610;2022-08-01T05:19:08;2.05;;;1.10;;
70985;SDS011;58645;43.068;25.610;2022-08-01T05:21:34;2.30;;;1.52;;
70985;SDS011;58645;43.068;25.610;2022-08-01T05:24:00;2.63;;;1.60;;
70985;SDS011;58645;43.068;25.610;2022-08-01T05:26:27;4.50;;;1.23;;
70985;SDS011;58645;43.068;25.610;2022-08-01T05:28:53;3.92;;;1.50;;
70985;SDS011;58645;43.068;25.610;2022-08-01T05:33:45;2.75;;;1.52;;
70985;SDS011;58645;43.068;25.610;2022-08-01T05:36:11;4.03;;;1.42;;
70985;SDS011;58645;43.068;25.610;2022-08-01T05:38:37;2.10;;;1.48;;
70985;SDS011;58645;43.068;25.610;2022-08-01T05:41:03;2.33;;;1.30;;
70985;SDS011;58645;43.068;25.610;2022-08-01T05:43:29;3.60;;;1.40;;
70985;SDS011;58645;43.068;25.610;2022-08-01T05:45:55;3.78;;;1.67;;
70985;SDS011;58645;43.068;25.610;2022-08-01T05:48:21;3.42;;;1.45;;
70985;SDS011;58645;43.068;25.610;2022-08-01T05:50:47;2.47;;;1.48;;
70985;SDS011;58645;43.068;25.610;2022-08-01T05:53:13;1.60;;;1.23;;
70985;SDS011;58645;43.068;25.610;2022-08-01T05:55:39;2.38;;;1.35;;
70985;SDS011;58645;43.068;25.610;2022-08-01T05:58:04;2.83;;;1.50;;
70985;SDS011;58645;43.068;25.610;2022-08-01T06:00:30;3.78;;;1.48;;
70985;SDS011;58645;43.068;25.610;2022-08-01T06:02:56;3.92;;;1.42;;
70985;SDS011;58645;43.068;25.610;2022-08-01T06:05:22;6.72;;;1.60;;
70985;SDS011;58645;43.068;25.610;2022-08-01T06:07:47;3.17;;;1.20;;
70985;SDS011;58645;43.068;25.610;2022-08-01T06:10:13;2.55;;;1.27;;
70985;SDS011;58645;43.068;25.610;2022-08-01T06:12:39;3.33;;;0.93;;
70985;SDS011;58645;43.068;25.610;2022-08-01T06:15:05;3.17;;;1.35;;
70985;SDS011;58645;43.068;25.610;2022-08-01T06:17:32;3.28;;;1.30;;
70985;SDS011;58645;43.068;25.610;2022-08-01T06:19:58;2.95;;;1.02;;
70985;SDS011;58645;43.068;25.610;2022-08-01T06:22:24;1.77;;;1.40;;
70985;SDS011;58645;43.068;25.610;2022-08-01T06:24:50;3.67;;;1.25;;
70985;SDS011;58645;43.068;25.610;2022-08-01T06:27:16;3.20;;;1.02;;
70985;SDS011;58645;43.068;25.610;2022-08-01T06:29:42;2.55;;;1.30;;
70985;SDS011;58645;43.068;25.610;2022-08-01T06:32:08;2.20;;;1.10;;
70985;SDS011;58645;43.068;25.610;2022-08-01T06:34:34;3.50;;;1.20;;
70985;SDS011;58645;43.068;25.610;2022-08-01T06:37:00;1.80;;;1.10;;
70985;SDS011;58645;43.068;25.610;2022-08-01T06:39:26;4.40;;;1.52;;
70985;SDS011;58645;43.068;25.610;2022-08-01T06:41:52;3.38;;;1.27;;
70985;SDS011;58645;43.068;25.610;2022-08-01T06:44:18;3.65;;;1.05;;
70985;SDS011;58645;43.068;25.610;2022-08-01T06:46:44;1.73;;;1.10;;
70985;SDS011;58645;43.068;25.610;2022-08-01T06:49:10;4.90;;;1.00;;
70985;SDS011;58645;43.068;25.610;2022-08-01T06:51:35;2.45;;;1.08;;
70985;SDS011;58645;43.068;25.610;2022-08-01T06:54:01;2.95;;;1.13;;
70985;SDS011;58645;43.068;25.610;2022-08-01T06:56:27;2.17;;;1.23;;
70985;SDS011;58645;43.068;25.610;2022-08-01T06:58:53;3.85;;;1.00;;
70985;SDS011;58645;43.068;25.610;2022-08-01T07:01:24;2.65;;;0.88;;
70985;SDS011;58645;43.068;25.610;2022-08-01T07:03:49;3.83;;;1.17;;
70985;SDS011;58645;43.068;25.610;2022-08-01T07:06:16;5.07;;;0.98;;
70985;SDS011;58645;43.068;25.610;2022-08-01T07:08:42;3.17;;;1.25;;
70985;SDS011;58645;43.068;25.610;2022-08-01T07:11:08;5.88;;;1.10;;
70985;SDS011;58645;43.068;25.610;2022-08-01T07:13:34;3.42;;;1.08;;
70985;SDS011;58645;43.068;25.610;2022-08-01T07:16:00;1.55;;;0.90;;
70985;SDS011;58645;43.068;25.610;2022-08-01T07:18:26;3.63;;;1.10;;
70985;SDS011;58645;43.068;25.610;2022-08-01T07:20:51;5.78;;;1.17;;
70985;SDS011;58645;43.068;25.610;2022-08-01T07:23:17;2.92;;;1.00;;
70985;SDS011;58645;43.068;25.610;2022-08-01T07:25:43;4.00;;;1.10;;
70985;SDS011;58645;43.068;25.610;2022-08-01T07:28:09;1.30;;;0.93;;
70985;SDS011;58645;43.068;25.610;2022-08-01T07:30:35;1.20;;;1.00;;
70985;SDS011;58645;43.068;25.610;2022-08-01T07:33:01;3.92;;;1.10;;
70985;SDS011;58645;43.068;25.610;2022-08-01T07:35:27;2.75;;;1.02;;
70985;SDS011;58645;43.068;25.610;2022-08-01T07:37:53;4.95;;;0.77;;
70985;SDS011;58645;43.068;25.610;2022-08-01T07:40:18;5.25;;;1.13;;
70985;SDS011;58645;43.068;25.610;2022-08-01T07:42:45;4.72;;;1.08;;
70985;SDS011;58645;43.068;25.610;2022-08-01T07:45:11;1.38;;;0.93;;
70985;SDS011;58645;43.068;25.610;2022-08-01T07:47:38;3.28;;;1.20;;
70985;SDS011;58645;43.068;25.610;2022-08-01T07:50:04;4.55;;;1.23;;
70985;SDS011;58645;43.068;25.610;2022-08-01T07:52:31;1.60;;;1.05;;
70985;SDS011;58645;43.068;25.610;2022-08-01T07:54:57;2.67;;;1.13;;
70985;SDS011;58645;43.068;25.610;2022-08-01T07:57:24;3.58;;;1.33;;
70985;SDS011;58645;43.068;25.610;2022-08-01T07:59:51;3.40;;;1.23;;
70985;SDS011;58645;43.068;25.610;2022-08-01T08:02:17;1.90;;;1.20;;
70985;SDS011;58645;43.068;25.610;2022-08-01T08:04:43;6.20;;;1.55;;
70985;SDS011;58645;43.068;25.610;2022-08-01T08:07:09;3.60;;;1.25;;
70985;SDS011;58645;43.068;25.610;2022-08-01T08:09:34;5.82;;;1.63;;
70985;SDS011;58645;43.068;25.610;2022-08-01T08:12:00;5.53;;;1.52;;
70985;SDS011;58645;43.068;25.610;2022-08-01T08:14:26;3.58;;;1.67;;
70985;SDS011;58645;43.068;25.610;2022-08-01T08:16:52;3.90;;;1.20;;
70985;SDS011;58645;43.068;25.610;2022-08-01T08:19:18;2.58;;;1.30;;
70985;SDS011;58645;43.068;25.610;2022-08-01T08:21:43;6.30;;;1.50;;
70985;SDS011;58645;43.068;25.610;2022-08-01T08:24:09;2.15;;;1.60;;
70985;SDS011;58645;43.068;25.610;2022-08-01T08:26:48;3.28;;;1.65;;
70985;SDS011;58645;43.068;25.610;2022-08-01T08:29:19;3.53;;;1.33;;
70985;SDS011;58645;43.068;25.610;2022-08-01T08:31:45;4.85;;;1.38;;
70985;SDS011;58645;43.068;25.610;2022-08-01T08:34:11;2.40;;;1.13;;
70985;SDS011;58645;43.068;25.610;2022-08-01T08:36:37;3.70;;;1.23;;
70985;SDS011;58645;43.068;25.610;2022-08-01T08:39:03;3.50;;;1.48;;
70985;SDS011;58645;43.068;25.610;2022-08-01T08:41:30;4.57;;;1.80;;
70985;SDS011;58645;43.068;25.610;2022-08-01T08:43:57;4.63;;;1.35;;
70985;SDS011;58645;43.068;25.610;2022-08-01T08:46:25;1.27;;;1.00;;
70985;SDS011;58645;43.068;25.610;2022-08-01T08:48:52;8.65;;;1.90;;
70985;SDS011;58645;43.068;25.610;2022-08-01T08:51:19;3.50;;;1.42;;
70985;SDS011;58645;43.068;25.610;2022-08-01T08:53:46;4.68;;;1.10;;
70985;SDS011;58645;43.068;25.610;2022-08-01T08:56:13;1.98;;;1.02;;
70985;SDS011;58645;43.068;25.610;2022-08-01T08:58:40;4.38;;;1.25;;
70985;SDS011;58645;43.068;25.610;2022-08-01T09:01:09;5.80;;;0.98;;
70985;SDS011;58645;43.068;25.610;2022-08-01T09:03:35;1.40;;;1.08;;
70985;SDS011;58645;43.068;25.610;2022-08-01T09:06:02;6.07;;;1.40;;
70985;SDS011;58645;43.068;25.610;2022-08-01T09:08:28;1.98;;;1.00;;
70985;SDS011;58645;43.068;25.610;2022-08-01T09:10:54;2.95;;;1.17;;
70985;SDS011;58645;43.068;25.610;2022-08-01T09:13:20;1.55;;;0.95;;
70985;SDS011;58645;43.068;25.610;2022-08-01T09:15:50;1.65;;;1.00;;
70985;SDS011;58645;43.068;25.610;2022-08-01T09:21:12;1.50;;;1.00;;
70985;SDS011;58645;43.068;25.610;2022-08-01T09:23:47;2.53;;;0.90;;
70985;SDS011;58645;43.068;25.610;2022-08-01T09:26:19;3.92;;;0.90;;
70985;SDS011;58645;43.068;25.610;2022-08-01T09:28:56;2.85;;;0.80;;
70985;SDS011;58645;43.068;25.610;2022-08-01T09:31:25;3.17;;;1.25;;
70985;SDS011;58645;43.068;25.610;2022-08-01T09:36:27;4.80;;;1.15;;
70985;SDS011;58645;43.068;25.610;2022-08-01T09:39:16;2.92;;;0.95;;
70985;SDS011;58645;43.068;25.610;2022-08-01T09:41:42;1.50;;;0.75;;
70985;SDS011;58645;43.068;25.610;2022-08-01T09:44:08;2.55;;;0.82;;
70985;SDS011;58645;43.068;25.610;2022-08-01T09:46:34;4.72;;;1.02;;
70985;SDS011;58645;43.068;25.610;2022-08-01T09:49:05;2.22;;;1.00;;
70985;SDS011;58645;43.068;25.610;2022-08-01T09:51:38;1.92;;;0.85;;
70985;SDS011;58645;43.068;25.610;2022-08-01T09:54:05;1.95;;;0.70;;
70985;SDS011;58645;43.068;25.610;2022-08-01T09:56:39;3.50;;;0.63;;
70985;SDS011;58645;43.068;25.610;2022-08-01T09:59:07;0.80;;;0.63;;
70985;SDS011;58645;43.068;25.610;2022-08-01T10:01:49;1.40;;;0.50;;
70985;SDS011;58645;43.068;25.610;2022-08-01T10:04:16;1.23;;;0.50;;
70985;SDS011;58645;43.068;25.610;2022-08-01T10:06:46;0.82;;;0.57;;
70985;SDS011;58645;43.068;25.610;2022-08-01T10:09:26;1.77;;;0.55;;
70985;SDS011;58645;43.068;25.610;2022-08-01T10:11:54;1.70;;;0.47;;
70985;SDS011;58645;43.068;25.610;2022-08-01T10:14:22;2.40;;;0.65;;
70985;SDS011;58645;43.068;25.610;2022-08-01T10:16:51;1.50;;;0.43;;
70985;SDS011;58645;43.068;25.610;2022-08-01T10:19:18;0.75;;;0.47;;
70985;SDS011;58645;43.068;25.610;2022-08-01T10:21:48;2.20;;;0.63;;
70985;SDS011;58645;43.068;25.610;2022-08-01T10:24:17;0.50;;;0.50;;
70985;SDS011;58645;43.068;25.610;2022-08-01T10:26:47;1.80;;;0.45;;
70985;SDS011;58645;43.068;25.610;2022-08-01T10:29:16;1.35;;;0.63;;
70985;SDS011;58645;43.068;25.610;2022-08-01T10:31:46;0.60;;;0.50;;
70985;SDS011;58645;43.068;25.610;2022-08-01T10:34:15;1.08;;;0.43;;
70985;SDS011;58645;43.068;25.610;2022-08-01T10:36:44;1.20;;;0.50;;
70985;SDS011;58645;43.068;25.610;2022-08-01T10:39:13;1.40;;;0.55;;
70985;SDS011;58645;43.068;25.610;2022-08-01T10:41:39;1.73;;;0.60;;
70985;SDS011;58645;43.068;25.610;2022-08-01T10:44:07;1.02;;;0.57;;
70985;SDS011;58645;43.068;25.610;2022-08-01T10:46:37;2.08;;;0.80;;
70985;SDS011;58645;43.068;25.610;2022-08-01T10:49:05;1.10;;;0.57;;
70985;SDS011;58645;43.068;25.610;2022-08-01T10:51:39;2.40;;;0.60;;
70985;SDS011;58645;43.068;25.610;2022-08-01T10:54:07;3.00;;;0.60;;
70985;SDS011;58645;43.068;25.610;2022-08-01T10:59:20;1.48;;;0.65;;
70985;SDS011;58645;43.068;25.610;2022-08-01T11:01:56;1.20;;;0.52;;
70985;SDS011;58645;43.068;25.610;2022-08-01T11:07:03;3.05;;;0.77;;
70985;SDS011;58645;43.068;25.610;2022-08-01T11:09:31;1.05;;;0.95;;
70985;SDS011;58645;43.068;25.610;2022-08-01T11:15:15;0.95;;;0.60;;
70985;SDS011;58645;43.068;25.610;2022-08-01T11:20:15;2.45;;;0.70;;
70985;SDS011;58645;43.068;25.610;2022-08-01T11:26:11;0.98;;;0.52;;
70985;SDS011;58645;43.068;25.610;2022-08-01T11:38:39;1.13;;;0.60;;
70985;SDS011;58645;43.068;25.610;2022-08-01T11:44:10;1.08;;;0.52;;
70985;SDS011;58645;43.068;25.610;2022-08-01T11:52:29;1.80;;;0.50;;
70985;SDS011;58645;43.068;25.610;2022-08-01T11:57:28;1.38;;;0.47;;
70985;SDS011;58645;43.068;25.610;2022-08-01T11:59:57;2.30;;;0.45;;
70985;SDS011;58645;43.068;25.610;2022-08-01T12:04:56;1.95;;;0.63;;
70985;SDS011;58645;43.068;25.610;2022-08-01T12:07:24;0.52;;;0.43;;
70985;SDS011;58645;43.068;25.610;2022-08-01T12:09:58;0.95;;;0.70;;
70985;SDS011;58645;43.068;25.610;2022-08-01T12:12:28;3.20;;;0.60;;
70985;SDS011;58645;43.068;25.610;2022-08-01T12:15:02;5.35;;;0.60;;
70985;SDS011;58645;43.068;25.610;2022-08-01T12:17:31;1.33;;;0.70;;
70985;SDS011;58645;43.068;25.610;2022-08-01T12:19:58;0.73;;;0.50;;
70985;SDS011;58645;43.068;25.610;2022-08-01T12:22:24;1.25;;;0.68;;
70985;SDS011;58645;43.068;25.610;2022-08-01T12:24:51;1.98;;;0.63;;
70985;SDS011;58645;43.068;25.610;2022-08-01T12:27:24;2.35;;;0.75;;
70985;SDS011;58645;43.068;25.610;2022-08-01T12:29:54;2.22;;;0.75;;
70985;SDS011;58645;43.068;25.610;2022-08-01T12:32:26;1.15;;;0.95;;
70985;SDS011;58645;43.068;25.610;2022-08-01T12:34:54;1.23;;;0.75;;
70985;SDS011;58645;43.068;25.610;2022-08-01T12:37:21;1.05;;;0.82;;
70985;SDS011;58645;43.068;25.610;2022-08-01T12:39:48;1.83;;;0.70;;
70985;SDS011;58645;43.068;25.610;2022-08-01T12:42:14;1.55;;;0.80;;
70985;SDS011;58645;43.068;25.610;2022-08-01T12:44:40;1.63;;;0.90;;
70985;SDS011;58645;43.068;25.610;2022-08-01T12:47:09;1.95;;;0.90;;
70985;SDS011;58645;43.068;25.610;2022-08-01T12:49:36;1.98;;;1.00;;
70985;SDS011;58645;43.068;25.610;2022-08-01T12:52:03;2.47;;;0.80;;
70985;SDS011;58645;43.068;25.610;2022-08-01T12:54:30;2.55;;;0.90;;
70985;SDS011;58645;43.068;25.610;2022-08-01T12:57:21;2.08;;;0.77;;
70985;SDS011;58645;43.068;25.610;2022-08-01T12:59:48;1.95;;;0.85;;
70985;SDS011;58645;43.068;25.610;2022-08-01T13:02:18;2.58;;;1.02;;
70985;SDS011;58645;43.068;25.610;2022-08-01T13:04:50;2.50;;;0.90;;
70985;SDS011;58645;43.068;25.610;2022-08-01T13:07:16;3.63;;;0.93;;
70985;SDS011;58645;43.068;25.610;2022-08-01T13:09:49;2.03;;;0.75;;
70985;SDS011;58645;43.068;25.610;2022-08-01T13:12:16;1.42;;;0.70;;
70985;SDS011;58645;43.068;25.610;2022-08-01T13:14:42;1.75;;;0.90;;
70985;SDS011;58645;43.068;25.610;2022-08-01T13:17:07;2.30;;;0.77;;
70985;SDS011;58645;43.068;25.610;2022-08-01T13:19:43;1.45;;;0.70;;
70985;SDS011;58645;43.068;25.610;2022-08-01T13:22:09;2.97;;;0.82;;
70985;SDS011;58645;43.068;25.610;2022-08-01T13:24:35;1.10;;;0.90;;
70985;SDS011;58645;43.068;25.610;2022-08-01T13:27:02;1.10;;;0.80;;
70985;SDS011;58645;43.068;25.610;2022-08-01T13:32:19;2.83;;;0.70;;
70985;SDS011;58645;43.068;25.610;2022-08-01T13:34:46;1.67;;;0.73;;
70985;SDS011;58645;43.068;25.610;2022-08-01T13:37:12;2.58;;;0.73;;
70985;SDS011;58645;43.068;25.610;2022-08-01T13:39:38;1.13;;;0.80;;
70985;SDS011;58645;43.068;25.610;2022-08-01T13:42:10;1.88;;;0.93;;
70985;SDS011;58645;43.068;25.610;2022-08-01T13:44:37;1.73;;;0.70;;
70985;SDS011;58645;43.068;25.610;2022-08-01T13:47:04;1.10;;;0.70;;
70985;SDS011;58645;43.068;25.610;2022-08-01T13:49:30;1.67;;;1.02;;
70985;SDS011;58645;43.068;25.610;2022-08-01T13:51:57;2.22;;;1.10;;
70985;SDS011;58645;43.068;25.610;2022-08-01T13:54:23;0.80;;;0.60;;
70985;SDS011;58645;43.068;25.610;2022-08-01T13:56:49;3.42;;;0.80;;
70985;SDS011;58645;43.068;25.610;2022-08-01T13:59:16;1.77;;;0.90;;
70985;SDS011;58645;43.068;25.610;2022-08-01T14:01:41;2.08;;;0.80;;
70985;SDS011;58645;43.068;25.610;2022-08-01T14:04:07;1.08;;;0.73;;
70985;SDS011;58645;43.068;25.610;2022-08-01T14:06:34;2.45;;;0.65;;
70985;SDS011;58645;43.068;25.610;2022-08-01T14:09:05;2.58;;;0.90;;
70985;SDS011;58645;43.068;25.610;2022-08-01T14:11:31;2.38;;;0.77;;
70985;SDS011;58645;43.068;25.610;2022-08-01T14:13:57;1.75;;;0.93;;
70985;SDS011;58645;43.068;25.610;2022-08-01T14:16:23;1.20;;;0.85;;
70985;SDS011;58645;43.068;25.610;2022-08-01T14:18:49;2.55;;;1.00;;
70985;SDS011;58645;43.068;25.610;2022-08-01T14:21:15;1.98;;;0.98;;
70985;SDS011;58645;43.068;25.610;2022-08-01T14:23:41;2.20;;;1.00;;
70985;SDS011;58645;43.068;25.610;2022-08-01T14:26:08;2.35;;;0.65;;
70985;SDS011;58645;43.068;25.610;2022-08-01T14:28:34;2.95;;;1.00;;
70985;SDS011;58645;43.068;25.610;2022-08-01T14:31:01;3.05;;;1.02;;
70985;SDS011;58645;43.068;25.610;2022-08-01T14:33:28;1.15;;;1.00;;
70985;SDS011;58645;43.068;25.610;2022-08-01T14:35:54;2.15;;;0.80;;
70985;SDS011;58645;43.068;25.610;2022-08-01T14:38:20;1.13;;;0.50;;
70985;SDS011;58645;43.068;25.610;2022-08-01T14:40:46;1.00;;;0.60;;
70985;SDS011;58645;43.068;25.610;2022-08-01T14:43:16;0.82;;;0.50;;
70985;SDS011;58645;43.068;25.610;2022-08-01T14:45:42;1.63;;;0.70;;
70985;SDS011;58645;43.068;25.610;2022-08-01T14:48:09;2.63;;;0.50;;
70985;SDS011;58645;43.068;25.610;2022-08-01T14:50:34;1.25;;;0.60;;
70985;SDS011;58645;43.068;25.610;2022-08-01T14:53:00;1.95;;;0.65;;
70985;SDS011;58645;43.068;25.610;2022-08-01T14:55:26;1.02;;;0.52;;
70985;SDS011;58645;43.068;25.610;2022-08-01T14:57:52;1.10;;;0.70;;
70985;SDS011;58645;43.068;25.610;2022-08-01T15:00:19;0.95;;;0.60;;
70985;SDS011;58645;43.068;25.610;2022-08-01T15:02:45;0.80;;;0.60;;
70985;SDS011;58645;43.068;25.610;2022-08-01T15:05:11;1.10;;;0.52;;
70985;SDS011;58645;43.068;25.610;2022-08-01T15:07:37;1.60;;;0.63;;
70985;SDS011;58645;43.068;25.610;2022-08-01T15:10:04;2.78;;;0.73;;
70985;SDS011;58645;43.068;25.610;2022-08-01T15:12:30;2.30;;;0.75;;
70985;SDS011;58645;43.068;25.610;2022-08-01T15:14:56;1.52;;;0.60;;
70985;SDS011;58645;43.068;25.610;2022-08-01T15:17:26;4.25;;;0.70;;
70985;SDS011;58645;43.068;25.610;2022-08-01T15:19:58;1.40;;;0.98;;
70985;SDS011;58645;43.068;25.610;2022-08-01T15:22:25;1.30;;;0.82;;
70985;SDS011;58645;43.068;25.610;2022-08-01T15:24:53;1.98;;;0.90;;
70985;SDS011;58645;43.068;25.610;2022-08-01T15:27:21;2.67;;;0.85;;
70985;SDS011;58645;43.068;25.610;2022-08-01T15:29:47;1.27;;;0.80;;
70985;SDS011;58645;43.068;25.610;2022-08-01T15:32:13;1.33;;;0.80;;
70985;SDS011;58645;43.068;25.610;2022-08-01T15:34:40;2.28;;;0.65;;
70985;SDS011;58645;43.068;25.610;2022-08-01T15:37:09;2.05;;;0.82;;
70985;SDS011;58645;43.068;25.610;2022-08-01T15:39:35;2.25;;;0.70;;
70985;SDS011;58645;43.068;25.610;2022-08-01T15:42:03;1.88;;;0.80;;
70985;SDS011;58645;43.068;25.610;2022-08-01T15:44:32;2.65;;;0.63;;
70985;SDS011;58645;43.068;25.610;2022-08-01T15:46:58;1.85;;;0.65;;
70985;SDS011;58645;43.068;25.610;2022-08-01T15:49:25;0.90;;;0.57;;